サン=ドニ の空港の天気 - METARとTAF

ローラン・ギャロス空港 ( FMEE / RUN ) - レユニオン サン=ドニ
飛行場実況気象(Metar)
観測時間09/30 10:00 RET (09/30 06:00 UTC)
風向・風速東北東 8m/s
視程10km以上
天気現象
少しの雲 雲底高度 1770m
全天の8割程度の雲 雲底高度 2130m
気温26℃
湿度70%
気圧1018hPa
METARFMEE 300600Z AUTO 07016KT 9999 FEW058 BKN070 26/20 Q1018 NOSIG
過去の天気等 Google飛行場航空写真 Wunderground天気予報

過去48時間のMETAR

飛行場予報(TAF)
発表時間: -
30日18時 RET ~ 30日19時 RET に徐々に
風向・風速南南東 4m/s
1日0時 RET ~ 1日8時 RET に 確率 30% で一時的に
視程4500m
天気現象しゅう雨
少しの雲 雲底高度 430m
全天の8割程度の雲 雲底高度 910m
1日8時 RET ~ 1日9時 RET に徐々に
風向・風速東 6m/s
TAF
FMEE 300500Z 3006/0112 08015KT 9999 FEW030 SCT050
BECMG 3014/3015 15008KT
PROB30 TEMPO 3020/0104 4500 SHRA FEW014 BKN030
BECMG 0104/0105 09012KT